Paramaribo, Suriname
Current Conditions -  °F | °C
As of 3:24 PM on Saturday 20 Dec 2014 (Local Time) from SMJP Reporting Station
Thunderstorm Thunderstorm  
Wind Chill: 79°   Ceiling: Unl
Heat Index: 83°   Visibility: 5mi
Dew Point: 77°   Wind: 7mph
Humidity: 94%   Direction: 140°SE
Pressure: 29.85"   Gusts: NA
Location:  5.45°N, 55.2°W
Report Text: SMJP 201824Z 14006KT 8000 -TSRA FEW008 FEW012CB SCT02526/25 Q1011 NOSIG
Loading
Personal Weather Stations






























Interactive Weather Map New forecast layout! Learn more

10-Day Weather Forecast

Advertisements
Track Severe Weather on mobile